Time,TemperatureF,DewpointF,PressureIn,WindDirection,WindDirectionDegrees,WindSpeedMPH,WindSpeedGustMPH,Humidity,HourlyPrecipIn,Conditions,Clouds,dailyrainin,SoftwareType,DateUTC
2013-01-08 00:00:00,27.7,19.5,32.27,SSE,165,2.2,2.2,71,-99.99,,,0.00,LWC V2.10 B1813,2013-01-08 05:00:00,
2013-01-08 00:05:00,27.5,19.4,32.27,SSE,165,2.7,2.7,71,-99.99,,,0.00,LWC V2.10 B1813,2013-01-08 05:05:00,
2013-01-08 00:10:00,27.3,19.2,32.27,SSE,165,0.0,0.0,71,-99.99,,,0.00,LWC V2.10 B1813,2013-01-08 05:10:00,
2013-01-08 00:15:00,27.5,19.7,32.27,SSE,165,0.0,0.0,72,-99.99,,,0.00,LWC V2.10 B1813,2013-01-08 05:15:00,
2013-01-08 00:20:00,27.3,19.5,32.27,SSE,165,0.0,0.0,72,-99.99,,,0.00,LWC V2.10 B1813,2013-01-08 05:20:00,
2013-01-08 00:25:00,27.3,19.5,32.27,SSE,165,0.0,0.0,72,-99.99,,,0.00,LWC V2.10 B1813,2013-01-08 05:25:00,
2013-01-08 00:30:00,27.1,19.7,32.27,SSE,165,0.0,0.0,73,-99.99,,,0.00,LWC V2.10 B1813,2013-01-08 05:30:00,
2013-01-08 00:35:00,27.3,19.8,32.27,SSE,165,0.0,0.0,73,-99.99,,,0.00,LWC V2.10 B1813,2013-01-08 05:35:00,
2013-01-08 00:40:00,27.3,19.8,32.27,SSE,165,0.0,0.0,73,-99.99,,,0.00,LWC V2.10 B1813,2013-01-08 05:40:00,
2013-01-08 00:45:00,27.3,20.1,32.27,SSE,165,0.0,0.0,74,-99.99,,,0.00,LWC V2.10 B1813,2013-01-08 05:45:00,
2013-01-08 00:50:00,27.3,19.8,32.27,SSE,165,0.0,0.0,73,-99.99,,,0.00,LWC V2.10 B1813,2013-01-08 05:50:00,
2013-01-08 00:55:00,27.1,19.7,32.27,SSE,165,0.0,0.0,73,-99.99,,,0.00,LWC V2.10 B1813,2013-01-08 05:55:00,
2013-01-08 01:00:00,27.0,19.5,32.27,SSE,165,0.0,0.0,73,-99.99,,,0.00,LWC V2.10 B1813,2013-01-08 06:00:00,
2013-01-08 01:05:00,26.8,19.3,32.27,SSE,165,0.0,0.0,73,-99.99,,,0.00,LWC V2.10 B1813,2013-01-08 06:05:00,
2013-01-08 01:10:00,26.6,19.5,32.27,SSE,165,0.0,0.0,74,-99.99,,,0.00,LWC V2.10 B1813,2013-01-08 06:10:00,
2013-01-08 01:15:00,26.8,19.9,32.27,SSE,165,0.0,0.0,75,-99.99,,,0.00,LWC V2.10 B1813,2013-01-08 06:15:00,
2013-01-08 01:20:00,26.8,19.9,32.27,SSE,165,0.0,0.0,75,-99.99,,,0.00,LWC V2.10 B1813,2013-01-08 06:20:00,
2013-01-08 01:25:00,26.8,19.9,32.27,SSE,165,0.0,0.0,75,-99.99,,,0.00,LWC V2.10 B1813,2013-01-08 06:25:00,
2013-01-08 01:30:00,26.8,19.9,32.27,SSE,165,0.0,0.0,75,-99.99,,,0.00,LWC V2.10 B1813,2013-01-08 06:30:00,
2013-01-08 01:35:00,26.4,19.9,32.27,SSE,165,0.0,0.0,76,-99.99,,,0.00,LWC V2.10 B1813,2013-01-08 06:35:00,
2013-01-08 01:40:00,26.2,19.7,32.27,SSE,165,0.0,0.0,76,-99.99,,,0.00,LWC V2.10 B1813,2013-01-08 06:40:00,
2013-01-08 01:45:00,26.2,19.7,32.27,SSE,165,0.0,0.0,76,-99.99,,,0.00,LWC V2.10 B1813,2013-01-08 06:45:00,
2013-01-08 01:50:00,26.1,19.6,32.27,SSE,165,0.0,0.0,76,-99.99,,,0.00,LWC V2.10 B1813,2013-01-08 06:50:00,
2013-01-08 01:55:00,26.1,19.9,32.27,SSE,165,0.0,0.0,77,-99.99,,,0.00,LWC V2.10 B1813,2013-01-08 06:55:00,
2013-01-08 02:00:00,26.1,19.9,32.27,SSE,165,0.0,0.0,77,-99.99,,,0.00,LWC V2.10 B1813,2013-01-08 07:00:00,
2013-01-08 02:05:00,26.1,19.9,32.27,SSE,165,3.1,3.6,77,-99.99,,,0.00,LWC V2.10 B1813,2013-01-08 07:05:00,
2013-01-08 02:10:00,26.2,20.3,32.27,SSE,165,3.6,4.9,78,-99.99,,,0.00,LWC V2.10 B1813,2013-01-08 07:10:00,
2013-01-08 02:15:00,26.4,20.5,32.27,SSE,151,3.6,4.0,78,-99.99,,,0.00,LWC V2.10 B1813,2013-01-08 07:15:00,
2013-01-08 02:20:00,26.6,20.4,32.27,SSE,151,5.4,5.4,77,-99.99,,,0.00,LWC V2.10 B1813,2013-01-08 07:20:00,
2013-01-08 02:25:00,26.6,20.4,32.27,SSE,150,6.3,6.3,77,-99.99,,,0.00,LWC V2.10 B1813,2013-01-08 07:25:00,
2013-01-08 02:30:00,26.4,20.2,32.27,SE,142,4.9,5.4,77,-99.99,,,0.00,LWC V2.10 B1813,2013-01-08 07:30:00,
2013-01-08 02:35:00,26.2,19.7,32.27,SSE,148,4.0,5.4,76,-99.99,,,0.00,LWC V2.10 B1813,2013-01-08 07:35:00,
2013-01-08 02:40:00,26.2,19.7,32.27,SSE,147,4.9,4.9,76,-99.99,,,0.00,LWC V2.10 B1813,2013-01-08 07:40:00,
2013-01-08 02:45:00,26.1,19.6,32.27,SSE,147,3.1,3.6,76,-99.99,,,0.00,LWC V2.10 B1813,2013-01-08 07:45:00,
2013-01-08 02:50:00,25.7,19.2,32.27,SSE,147,3.6,3.6,76,-99.99,,,0.00,LWC V2.10 B1813,2013-01-08 07:50:00,
2013-01-08 02:55:00,25.7,19.5,32.27,SSE,147,4.0,4.0,77,-99.99,,,0.00,LWC V2.10 B1813,2013-01-08 07:55:00,
2013-01-08 03:00:00,25.5,19.3,32.27,SSE,147,2.7,3.6,77,-99.99,,,0.00,LWC V2.10 B1813,2013-01-08 08:00:00,
2013-01-08 03:05:00,25.3,19.2,32.27,SSE,147,2.2,3.6,77,-99.99,,,0.00,LWC V2.10 B1813,2013-01-08 08:05:00,
2013-01-08 03:10:00,25.3,19.5,32.27,SSE,147,3.1,4.0,78,-99.99,,,0.00,LWC V2.10 B1813,2013-01-08 08:10:00,
2013-01-08 03:15:00,25.3,19.5,32.27,SSE,147,3.6,4.0,78,-99.99,,,0.00,LWC V2.10 B1813,2013-01-08 08:15:00,
2013-01-08 03:20:00,25.5,19.9,32.27,SSE,147,3.1,3.6,79,-99.99,,,0.00,LWC V2.10 B1813,2013-01-08 08:20:00,
2013-01-08 03:25:00,25.7,20.1,32.27,SSE,147,4.0,4.9,79,-99.99,,,0.00,LWC V2.10 B1813,2013-01-08 08:25:00,
2013-01-08 03:30:00,25.9,20.3,32.27,SSE,147,4.0,4.0,79,-99.99,,,0.00,LWC V2.10 B1813,2013-01-08 08:30:00,
2013-01-08 03:35:00,25.7,19.8,32.27,SSE,147,4.0,4.9,78,-99.99,,,0.00,LWC V2.10 B1813,2013-01-08 08:35:00,
2013-01-08 03:40:00,25.7,19.8,32.27,SSE,147,3.6,3.6,78,-99.99,,,0.00,LWC V2.10 B1813,2013-01-08 08:40:00,
2013-01-08 03:45:00,26.1,20.2,32.27,SSE,147,3.1,4.0,78,-99.99,,,0.00,LWC V2.10 B1813,2013-01-08 08:45:00,
2013-01-08 03:50:00,26.4,20.5,32.27,South,169,3.1,3.1,78,-99.99,,,0.00,LWC V2.10 B1813,2013-01-08 08:50:00,
2013-01-08 03:55:00,26.6,20.7,32.27,South,171,3.6,4.0,78,-99.99,,,0.00,LWC V2.10 B1813,2013-01-08 08:55:00,
2013-01-08 04:00:00,27.0,21.0,32.27,South,170,2.7,3.6,78,-99.99,,,0.00,LWC V2.10 B1813,2013-01-08 09:00:00,
2013-01-08 04:05:00,27.3,21.1,32.27,SSE,166,3.1,4.9,77,-99.99,,,0.00,LWC V2.10 B1813,2013-01-08 09:05:00,
2013-01-08 04:10:00,27.7,21.1,32.27,SSE,157,4.9,4.9,76,-99.99,,,0.00,LWC V2.10 B1813,2013-01-08 09:10:00,
2013-01-08 04:15:00,27.9,20.7,32.27,SSE,158,2.7,4.0,74,-99.99,,,0.00,LWC V2.10 B1813,2013-01-08 09:15:00,
2013-01-08 04:20:00,28.0,20.8,32.27,South,172,4.0,5.4,74,-99.99,,,0.00,LWC V2.10 B1813,2013-01-08 09:20:00,
2013-01-08 04:25:00,28.0,20.5,32.27,SSE,149,2.2,4.0,73,-99.99,,,0.00,LWC V2.10 B1813,2013-01-08 09:25:00,
2013-01-08 04:30:00,27.7,19.2,32.27,SE,141,0.0,0.0,70,-99.99,,,0.00,LWC V2.10 B1813,2013-01-08 09:30:00,
2013-01-08 04:35:00,27.3,18.8,32.27,SE,141,0.0,0.0,70,-99.99,,,0.00,LWC V2.10 B1813,2013-01-08 09:35:00,
2013-01-08 04:40:00,27.0,18.5,32.27,SE,140,0.0,0.0,70,-99.99,,,0.00,LWC V2.10 B1813,2013-01-08 09:40:00,
2013-01-08 04:45:00,26.8,18.7,32.27,SE,140,0.0,0.0,71,-99.99,,,0.00,LWC V2.10 B1813,2013-01-08 09:45:00,
2013-01-08 04:50:00,26.8,19.0,32.27,SE,140,0.0,0.0,72,-99.99,,,0.00,LWC V2.10 B1813,2013-01-08 09:50:00,
2013-01-08 04:55:00,26.8,19.0,32.27,SE,140,0.0,0.0,72,-99.99,,,0.00,LWC V2.10 B1813,2013-01-08 09:55:00,
2013-01-08 05:00:00,27.0,19.2,32.27,SE,140,0.0,0.0,72,-99.99,,,0.00,LWC V2.10 B1813,2013-01-08 10:00:00,
2013-01-08 05:05:00,27.0,19.2,32.27,SE,140,0.0,0.0,72,-99.99,,,0.00,LWC V2.10 B1813,2013-01-08 10:05:00,
2013-01-08 05:10:00,27.1,19.0,32.27,SE,140,0.0,0.0,71,-99.99,,,0.00,LWC V2.10 B1813,2013-01-08 10:10:00,
2013-01-08 05:15:00,27.0,18.8,32.27,SE,140,0.0,0.0,71,-99.99,,,0.00,LWC V2.10 B1813,2013-01-08 10:15:00,
2013-01-08 05:20:00,26.8,18.7,32.27,SE,140,0.0,0.0,71,-99.99,,,0.00,LWC V2.10 B1813,2013-01-08 10:20:00,
2013-01-08 05:25:00,26.6,18.8,32.27,SE,140,0.0,0.0,72,-99.99,,,0.00,LWC V2.10 B1813,2013-01-08 10:25:00,
2013-01-08 05:30:00,26.6,18.8,32.27,NE,35,0.0,0.0,72,-99.99,,,0.00,LWC V2.10 B1813,2013-01-08 10:30:00,
2013-01-08 05:35:00,26.6,18.8,32.27,NE,39,2.7,3.1,72,-99.99,,,0.00,LWC V2.10 B1813,2013-01-08 10:35:00,
2013-01-08 05:40:00,26.8,19.0,32.27,NE,55,0.0,2.7,72,-99.99,,,0.00,LWC V2.10 B1813,2013-01-08 10:40:00,
2013-01-08 05:45:00,27.0,19.2,32.27,East,86,2.7,4.0,72,-99.99,,,0.00,LWC V2.10 B1813,2013-01-08 10:45:00,
2013-01-08 05:50:00,27.0,19.2,32.27,ESE,112,3.1,3.1,72,-99.99,,,0.00,LWC V2.10 B1813,2013-01-08 10:50:00,
2013-01-08 05:53:00,27.0,18.8,32.27,ESE,114,3.1,3.6,71,-99.99,,,0.00,LWC V2.10 B1813,2013-01-08 10:53:00,
2013-01-08 05:58:00,26.8,18.7,32.27,SE,124,2.7,3.6,71,-99.99,,,0.00,LWC V2.10 B1813,2013-01-08 10:58:00,
2013-01-08 06:03:00,26.4,18.6,32.27,SE,127,0.0,0.0,72,-99.99,,,0.00,LWC V2.10 B1813,2013-01-08 11:03:00,
2013-01-08 06:04:00,26.4,18.6,32.27,SE,136,2.2,3.6,72,-99.99,,,0.00,LWC V2.10 B1813,2013-01-08 11:04:00,
2013-01-08 06:09:00,26.1,18.3,32.27,SE,136,2.7,3.6,72,-99.99,,,0.00,LWC V2.10 B1813,2013-01-08 11:09:00,
2013-01-08 06:14:00,25.9,18.1,32.27,SE,125,3.6,3.6,72,-99.99,,,0.00,LWC V2.10 B1813,2013-01-08 11:14:00,
2013-01-08 06:19:00,25.9,18.4,32.27,SE,136,4.0,4.0,73,-99.99,,,0.00,LWC V2.10 B1813,2013-01-08 11:19:00,
2013-01-08 06:24:00,25.7,18.3,32.27,SE,138,4.0,4.0,73,-99.99,,,0.00,LWC V2.10 B1813,2013-01-08 11:24:00,
2013-01-08 06:29:00,25.5,18.4,32.27,SE,139,3.6,4.5,74,-99.99,,,0.00,LWC V2.10 B1813,2013-01-08 11:29:00,
2013-01-08 06:34:00,25.5,18.4,32.27,SE,138,3.6,4.0,74,-99.99,,,0.00,LWC V2.10 B1813,2013-01-08 11:34:00,
2013-01-08 06:39:00,25.2,18.1,32.27,SE,129,4.9,4.9,74,-99.99,,,0.00,LWC V2.10 B1813,2013-01-08 11:39:00,
2013-01-08 06:44:00,25.2,18.4,32.27,SE,137,3.1,4.9,75,-99.99,,,0.00,LWC V2.10 B1813,2013-01-08 11:44:00,
2013-01-08 06:49:00,25.3,18.9,32.27,SE,132,4.0,5.4,76,-99.99,,,0.00,LWC V2.10 B1813,2013-01-08 11:49:00,
2013-01-08 06:54:00,25.3,19.2,32.27,SE,140,3.6,4.0,77,-99.99,,,0.00,LWC V2.10 B1813,2013-01-08 11:54:00,
2013-01-08 06:59:00,25.3,19.2,32.27,SE,139,2.7,3.6,77,-99.99,,,0.00,LWC V2.10 B1813,2013-01-08 11:59:00,
2013-01-08 07:04:00,25.3,19.2,32.27,SE,141,2.7,3.6,77,-99.99,,,0.00,LWC V2.10 B1813,2013-01-08 12:04:00,
2013-01-08 07:09:00,25.3,19.2,32.27,SE,131,3.6,4.0,77,-99.99,,,0.00,LWC V2.10 B1813,2013-01-08 12:09:00,
2013-01-08 07:14:00,25.3,19.2,32.27,SE,131,2.7,3.6,77,-99.99,,,0.00,LWC V2.10 B1813,2013-01-08 12:14:00,
2013-01-08 07:19:00,25.3,19.2,32.27,SE,131,3.6,4.0,77,-99.99,,,0.00,LWC V2.10 B1813,2013-01-08 12:19:00,
2013-01-08 07:24:00,25.3,19.2,32.27,SE,130,0.0,2.2,77,-99.99,,,0.00,LWC V2.10 B1813,2013-01-08 12:24:00,
2013-01-08 07:29:00,25.5,19.3,32.27,SE,130,0.0,0.0,77,-99.99,,,0.00,LWC V2.10 B1813,2013-01-08 12:29:00,
2013-01-08 07:34:00,25.3,18.9,32.27,SE,130,0.0,0.0,76,-99.99,,,0.00,LWC V2.10 B1813,2013-01-08 12:34:00,
2013-01-08 07:39:00,25.3,18.9,32.27,SE,130,0.0,0.0,76,-99.99,,,0.00,LWC V2.10 B1813,2013-01-08 12:39:00,
2013-01-08 07:44:00,25.2,18.7,32.27,SE,130,0.0,0.0,76,-99.99,,,0.00,LWC V2.10 B1813,2013-01-08 12:44:00,
2013-01-08 07:49:00,25.3,19.2,32.27,SE,130,0.0,3.6,77,-99.99,,,0.00,LWC V2.10 B1813,2013-01-08 12:49:00,
2013-01-08 07:54:00,25.3,19.2,32.27,SE,130,0.0,0.0,77,-99.99,,,0.00,LWC V2.10 B1813,2013-01-08 12:54:00,
2013-01-08 07:59:00,25.5,19.3,32.27,SE,130,0.0,0.0,77,-99.99,,,0.00,LWC V2.10 B1813,2013-01-08 12:59:00,
2013-01-08 08:04:00,25.7,19.5,32.27,SE,130,0.0,0.0,77,-99.99,,,0.00,LWC V2.10 B1813,2013-01-08 13:04:00,
2013-01-08 08:05:00,25.7,19.5,32.27,SE,130,0.0,0.0,77,-99.99,,,0.00,LWC V2.10 B1813,2013-01-08 13:05:00,
2013-01-08 08:10:00,25.9,19.4,32.27,SE,129,3.6,4.5,76,-99.99,,,0.00,LWC V2.10 B1813,2013-01-08 13:10:00,
2013-01-08 08:15:00,26.1,19.6,32.27,SE,146,3.1,4.0,76,-99.99,,,0.00,LWC V2.10 B1813,2013-01-08 13:15:00,
2013-01-08 08:20:00,26.2,19.4,32.27,SE,145,2.7,4.5,75,-99.99,,,0.00,LWC V2.10 B1813,2013-01-08 13:20:00,
2013-01-08 08:25:00,26.4,19.6,32.27,SE,133,5.4,5.4,75,-99.99,,,0.00,LWC V2.10 B1813,2013-01-08 13:25:00,
2013-01-08 08:30:00,26.8,19.6,32.27,SE,143,2.7,3.6,74,-99.99,,,0.00,LWC V2.10 B1813,2013-01-08 13:30:00,
2013-01-08 08:35:00,26.8,19.3,32.27,SSE,147,3.6,4.9,73,-99.99,,,0.00,LWC V2.10 B1813,2013-01-08 13:35:00,
2013-01-08 08:40:00,27.0,19.5,32.27,SE,138,5.8,5.8,73,-99.99,,,0.00,LWC V2.10 B1813,2013-01-08 13:40:00,
2013-01-08 08:45:00,27.3,19.8,32.27,SE,144,5.8,5.8,73,-99.99,,,0.00,LWC V2.10 B1813,2013-01-08 13:45:00,
2013-01-08 08:50:00,27.5,19.7,32.27,SE,137,4.0,4.0,72,-99.99,,,0.00,LWC V2.10 B1813,2013-01-08 13:50:00,
2013-01-08 08:55:00,27.5,19.4,32.27,SE,142,4.0,5.4,71,-99.99,,,0.00,LWC V2.10 B1813,2013-01-08 13:55:00,
2013-01-08 09:00:00,27.7,19.2,32.27,SSE,149,4.0,5.8,70,-99.99,,,0.00,LWC V2.10 B1813,2013-01-08 14:00:00,
2013-01-08 09:05:00,27.7,19.2,32.27,SSE,158,5.4,5.8,70,-99.99,,,0.00,LWC V2.10 B1813,2013-01-08 14:05:00,
2013-01-08 09:10:00,28.0,19.5,32.27,SE,142,4.0,5.8,70,-99.99,,,0.00,LWC V2.10 B1813,2013-01-08 14:10:00,
2013-01-08 09:15:00,28.6,20.1,32.27,SSE,150,4.5,6.3,70,-99.99,,,0.00,LWC V2.10 B1813,2013-01-08 14:15:00,
2013-01-08 09:20:00,29.1,20.2,32.27,SE,142,3.6,5.4,69,-99.99,,,0.00,LWC V2.10 B1813,2013-01-08 14:20:00,
2013-01-08 09:25:00,29.7,20.1,32.27,SE,141,4.9,5.4,67,-99.99,,,0.00,LWC V2.10 B1813,2013-01-08 14:25:00,
2013-01-08 09:30:00,30.4,20.4,32.27,SE,145,4.0,5.8,66,-99.99,,,0.00,LWC V2.10 B1813,2013-01-08 14:30:00,
2013-01-08 09:35:00,31.1,20.4,32.27,SSE,154,5.4,5.8,64,-99.99,,,0.00,LWC V2.10 B1813,2013-01-08 14:35:00,
2013-01-08 09:40:00,31.8,20.7,32.27,SE,146,3.6,4.0,63,-99.99,,,0.00,LWC V2.10 B1813,2013-01-08 14:40:00,
2013-01-08 09:45:00,32.5,20.6,32.27,SSE,157,4.9,5.8,61,-99.99,,,0.00,LWC V2.10 B1813,2013-01-08 14:45:00,
2013-01-08 09:50:00,33.4,20.7,32.27,SE,130,5.8,5.8,59,-99.99,,,0.00,LWC V2.10 B1813,2013-01-08 14:50:00,
2013-01-08 09:55:00,33.8,20.2,32.27,SSE,165,6.3,6.3,57,-99.99,,,0.00,LWC V2.10 B1813,2013-01-08 14:55:00,
2013-01-08 10:00:00,34.3,19.9,32.27,SSE,147,4.9,5.8,55,-99.99,,,0.00,LWC V2.10 B1813,2013-01-08 15:00:00,
2013-01-08 10:05:00,34.9,20.4,32.27,SSE,157,3.6,4.9,55,-99.99,,,0.00,LWC V2.10 B1813,2013-01-08 15:05:00,
2013-01-08 10:10:00,35.6,20.6,32.27,SE,145,4.0,6.3,54,-99.99,,,0.00,LWC V2.10 B1813,2013-01-08 15:10:00,
2013-01-08 10:15:00,36.5,21.0,32.27,SE,141,3.6,6.3,53,-99.99,,,0.00,LWC V2.10 B1813,2013-01-08 15:15:00,
2013-01-08 10:20:00,37.6,21.1,32.27,SE,146,4.0,6.3,51,-99.99,,,0.00,LWC V2.10 B1813,2013-01-08 15:20:00,
2013-01-08 10:25:00,38.5,21.5,32.27,ESE,123,5.8,5.8,50,-99.99,,,0.00,LWC V2.10 B1813,2013-01-08 15:25:00,
2013-01-08 10:30:00,39.0,21.5,32.27,South,169,4.0,4.0,49,-99.99,,,0.00,LWC V2.10 B1813,2013-01-08 15:30:00,
2013-01-08 10:35:00,39.6,21.5,32.27,South,171,5.8,8.3,48,-99.99,,,0.00,LWC V2.10 B1813,2013-01-08 15:35:00,
2013-01-08 10:41:00,39.9,21.8,32.27,SSW,212,3.6,7.6,48,-99.99,,,0.00,LWC V2.10 B1813,2013-01-08 15:41:00,
2013-01-08 10:46:00,40.6,21.5,32.27,SE,145,5.8,6.7,46,-99.99,,,0.00,LWC V2.10 B1813,2013-01-08 15:46:00,
2013-01-08 10:51:00,41.5,21.8,32.27,SSE,165,4.9,5.8,45,-99.99,,,0.00,LWC V2.10 B1813,2013-01-08 15:51:00,
2013-01-08 10:56:00,42.6,23.3,32.27,South,179,0.0,0.0,46,-99.99,,,0.00,LWC V2.10 B1813,2013-01-08 15:56:00,
2013-01-08 11:01:00,43.9,23.9,32.27,SSW,208,0.0,3.1,45,-99.99,,,0.00,LWC V2.10 B1813,2013-01-08 16:01:00,
2013-01-08 11:06:00,44.4,22.8,32.27,SSE,151,3.6,3.6,42,-99.99,,,0.00,LWC V2.10 B1813,2013-01-08 16:06:00,
2013-01-08 11:11:00,44.8,22.5,32.27,South,177,3.1,4.9,41,-99.99,,,0.00,LWC V2.10 B1813,2013-01-08 16:11:00,
2013-01-08 11:16:00,45.0,22.1,32.27,SSE,155,4.0,6.3,40,-99.99,,,0.00,LWC V2.10 B1813,2013-01-08 16:16:00,
2013-01-08 11:21:00,44.8,22.5,32.27,SSW,205,2.2,8.3,41,-99.99,,,0.00,LWC V2.10 B1813,2013-01-08 16:21:00,
2013-01-08 11:26:00,45.0,22.7,32.27,SSE,163,5.8,7.6,41,-99.99,,,0.00,LWC V2.10 B1813,2013-01-08 16:26:00,
2013-01-08 11:31:00,44.6,22.4,32.27,SSW,201,5.4,8.3,41,-99.99,,,0.00,LWC V2.10 B1813,2013-01-08 16:31:00,
2013-01-08 11:36:00,43.7,22.1,32.27,SSW,199,8.3,8.7,42,-99.99,,,0.00,LWC V2.10 B1813,2013-01-08 16:36:00,
2013-01-08 11:41:00,44.2,23.2,32.27,SW,214,8.3,8.3,43,-99.99,,,0.00,LWC V2.10 B1813,2013-01-08 16:41:00,
2013-01-08 11:46:00,44.1,22.5,32.27,South,187,5.8,8.7,42,-99.99,,,0.00,LWC V2.10 B1813,2013-01-08 16:46:00,
2013-01-08 11:51:00,44.8,23.1,32.27,South,177,8.1,9.2,42,-99.99,,,0.00,LWC V2.10 B1813,2013-01-08 16:51:00,
2013-01-08 11:56:00,44.2,22.6,32.27,South,189,8.3,13.2,42,-99.99,,,0.00,LWC V2.10 B1813,2013-01-08 16:56:00,
2013-01-08 12:01:00,44.2,23.2,32.27,South,169,8.7,8.7,43,-99.99,,,0.00,LWC V2.10 B1813,2013-01-08 17:01:00,
2013-01-08 12:06:00,44.6,22.9,32.27,SSW,193,5.4,8.7,42,-99.99,,,0.00,LWC V2.10 B1813,2013-01-08 17:06:00,
2013-01-08 12:11:00,44.6,22.9,32.27,SSE,158,10.5,10.5,42,-99.99,,,0.00,LWC V2.10 B1813,2013-01-08 17:11:00,
2013-01-08 12:16:00,44.8,23.1,32.27,South,189,10.5,10.5,42,-99.99,,,0.00,LWC V2.10 B1813,2013-01-08 17:16:00,
2013-01-08 12:21:00,44.4,23.3,32.27,SSE,159,6.3,8.1,43,-99.99,,,0.00,LWC V2.10 B1813,2013-01-08 17:21:00,
2013-01-08 12:26:00,44.4,22.8,32.27,South,171,7.6,8.7,42,-99.99,,,0.00,LWC V2.10 B1813,2013-01-08 17:26:00,
2013-01-08 12:31:00,45.1,23.4,32.27,SSW,207,5.4,10.1,42,-99.99,,,0.00,LWC V2.10 B1813,2013-01-08 17:31:00,
2013-01-08 12:36:00,46.0,23.7,32.27,SSW,202,8.1,10.1,41,-99.99,,,0.00,LWC V2.10 B1813,2013-01-08 17:36:00,
2013-01-08 12:41:00,46.8,23.7,32.27,SSE,158,6.7,8.7,40,-99.99,,,0.00,LWC V2.10 B1813,2013-01-08 17:41:00,
2013-01-08 12:46:00,47.5,24.4,32.27,SSE,166,8.7,8.7,40,-99.99,,,0.00,LWC V2.10 B1813,2013-01-08 17:46:00,
2013-01-08 12:51:00,47.8,24.1,32.27,SW,218,6.7,10.5,39,-99.99,,,0.00,LWC V2.10 B1813,2013-01-08 17:51:00,
2013-01-08 12:56:00,48.2,24.4,32.27,SSE,167,8.3,10.1,39,-99.99,,,0.00,LWC V2.10 B1813,2013-01-08 17:56:00,
2013-01-08 13:01:00,47.3,23.6,32.27,SSW,209,8.7,10.1,39,-99.99,,,0.00,LWC V2.10 B1813,2013-01-08 18:01:00,
2013-01-08 13:06:00,46.9,23.3,32.27,South,186,8.7,8.7,39,-99.99,,,0.00,LWC V2.10 B1813,2013-01-08 18:06:00,
2013-01-08 13:11:00,47.1,23.5,32.27,SSW,199,9.6,10.5,39,-99.99,,,0.00,LWC V2.10 B1813,2013-01-08 18:11:00,
2013-01-08 13:16:00,46.8,23.7,32.27,SW,217,8.3,8.7,40,-99.99,,,0.00,LWC V2.10 B1813,2013-01-08 18:16:00,
2013-01-08 13:21:00,46.9,23.9,32.27,SSW,202,8.7,8.7,40,-99.99,,,0.00,LWC V2.10 B1813,2013-01-08 18:21:00,
2013-01-08 13:26:00,47.3,23.6,32.27,South,171,8.3,12.3,39,-99.99,,,0.00,LWC V2.10 B1813,2013-01-08 18:26:00,
2013-01-08 13:31:00,47.8,24.1,32.27,SW,216,8.1,10.5,39,-99.99,,,0.00,LWC V2.10 B1813,2013-01-08 18:31:00,
2013-01-08 13:36:00,48.0,24.3,32.27,South,172,5.4,8.7,39,-99.99,,,0.00,LWC V2.10 B1813,2013-01-08 18:36:00,
2013-01-08 13:41:00,48.7,24.3,32.27,SSW,200,7.6,9.6,38,-99.99,,,0.00,LWC V2.10 B1813,2013-01-08 18:41:00,
2013-01-08 13:46:00,48.9,25.1,32.27,South,182,5.4,9.6,39,-99.99,,,0.00,LWC V2.10 B1813,2013-01-08 18:46:00,
2013-01-08 13:51:00,47.8,24.1,32.27,SSE,163,8.1,8.3,39,-99.99,,,0.00,LWC V2.10 B1813,2013-01-08 18:51:00,
2013-01-08 13:56:00,47.5,23.8,32.27,South,173,5.8,8.7,39,-99.99,,,0.00,LWC V2.10 B1813,2013-01-08 18:56:00,
2013-01-08 14:01:00,47.3,24.2,32.27,South,183,5.8,8.7,40,-99.99,,,0.00,LWC V2.10 B1813,2013-01-08 19:01:00,
2013-01-08 14:06:00,48.0,24.9,32.27,South,187,8.1,8.1,40,-99.99,,,0.00,LWC V2.10 B1813,2013-01-08 19:06:00,
2013-01-08 14:11:00,48.4,24.6,32.27,SSW,192,5.8,11.0,39,-99.99,,,0.00,LWC V2.10 B1813,2013-01-08 19:11:00,
2013-01-08 14:16:00,48.7,24.3,32.27,SSW,192,6.3,7.6,38,-99.99,,,0.00,LWC V2.10 B1813,2013-01-08 19:16:00,
2013-01-08 14:21:00,49.1,24.6,32.27,South,186,6.3,10.5,38,-99.99,,,0.00,LWC V2.10 B1813,2013-01-08 19:21:00,
2013-01-08 14:26:00,49.3,25.4,32.27,South,175,6.3,8.3,39,-99.99,,,0.00,LWC V2.10 B1813,2013-01-08 19:26:00,
2013-01-08 14:31:00,48.9,24.4,32.27,South,174,6.3,8.3,38,-99.99,,,0.00,LWC V2.10 B1813,2013-01-08 19:31:00,
2013-01-08 14:36:00,48.6,24.7,32.27,SSE,166,8.3,8.3,39,-99.99,,,0.00,LWC V2.10 B1813,2013-01-08 19:36:00,
2013-01-08 14:41:00,48.7,24.9,32.27,South,174,7.2,8.3,39,-99.99,,,0.00,LWC V2.10 B1813,2013-01-08 19:41:00,
2013-01-08 14:46:00,49.1,25.2,32.27,South,173,6.3,6.3,39,-99.99,,,0.00,LWC V2.10 B1813,2013-01-08 19:46:00,
2013-01-08 14:51:00,49.5,24.9,32.27,SSW,200,6.3,8.7,38,-99.99,,,0.00,LWC V2.10 B1813,2013-01-08 19:51:00,
2013-01-08 14:56:00,49.3,24.8,32.27,South,173,6.3,8.3,38,-99.99,,,0.00,LWC V2.10 B1813,2013-01-08 19:56:00,
2013-01-08 15:01:00,48.2,24.4,32.27,SSW,203,5.8,6.3,39,-99.99,,,0.00,LWC V2.10 B1813,2013-01-08 20:01:00,
2013-01-08 15:06:00,47.3,24.2,32.27,SSW,202,8.7,8.7,40,-99.99,,,0.00,LWC V2.10 B1813,2013-01-08 20:06:00,
2013-01-08 15:11:00,47.5,25.0,32.27,South,173,6.3,7.6,41,-99.99,,,0.00,LWC V2.10 B1813,2013-01-08 20:11:00,
2013-01-08 15:16:00,48.7,26.1,32.27,SSW,202,6.3,8.7,41,-99.99,,,0.00,LWC V2.10 B1813,2013-01-08 20:16:00,
2013-01-08 15:21:00,49.8,25.9,32.27,SSW,197,6.3,7.6,39,-99.99,,,0.00,LWC V2.10 B1813,2013-01-08 20:21:00,
2013-01-08 15:26:00,50.2,25.6,32.27,South,171,5.4,6.3,38,-99.99,,,0.00,LWC V2.10 B1813,2013-01-08 20:26:00,
2013-01-08 15:31:00,50.2,25.6,32.27,SSE,153,6.3,7.6,38,-99.99,,,0.00,LWC V2.10 B1813,2013-01-08 20:31:00,
2013-01-08 15:36:00,50.0,25.4,32.27,SSE,166,6.3,6.3,38,-99.99,,,0.00,LWC V2.10 B1813,2013-01-08 20:36:00,
2013-01-08 15:41:00,50.0,25.4,32.27,SSE,159,6.7,8.1,38,-99.99,,,0.00,LWC V2.10 B1813,2013-01-08 20:41:00,
2013-01-08 15:46:00,49.8,25.2,32.27,SSE,155,6.3,7.6,38,-99.99,,,0.00,LWC V2.10 B1813,2013-01-08 20:46:00,
2013-01-08 15:51:00,49.3,24.8,32.27,SSW,197,3.6,6.3,38,-99.99,,,0.00,LWC V2.10 B1813,2013-01-08 20:51:00,
2013-01-08 15:56:00,49.5,24.9,32.27,South,179,4.9,6.3,38,-99.99,,,0.00,LWC V2.10 B1813,2013-01-08 20:56:00,
2013-01-08 16:01:00,49.5,24.9,32.27,SSE,161,5.4,6.3,38,-99.99,,,0.00,LWC V2.10 B1813,2013-01-08 21:01:00,
2013-01-08 16:06:00,48.9,24.4,32.27,SSE,166,5.4,7.2,38,-99.99,,,0.00,LWC V2.10 B1813,2013-01-08 21:06:00,
2013-01-08 16:11:00,49.1,24.6,32.27,South,173,5.8,7.6,38,-99.99,,,0.00,LWC V2.10 B1813,2013-01-08 21:11:00,
2013-01-08 16:16:00,49.3,24.8,32.27,South,170,6.3,6.3,38,-99.99,,,0.00,LWC V2.10 B1813,2013-01-08 21:16:00,
2013-01-08 16:21:00,49.3,24.8,32.27,SSE,155,4.9,5.8,38,-99.99,,,0.00,LWC V2.10 B1813,2013-01-08 21:21:00,
2013-01-08 16:26:00,49.3,24.8,32.27,SSE,164,3.1,3.6,38,-99.99,,,0.00,LWC V2.10 B1813,2013-01-08 21:26:00,
2013-01-08 16:31:00,49.1,24.6,32.27,SSW,194,4.0,5.8,38,-99.99,,,0.00,LWC V2.10 B1813,2013-01-08 21:31:00,
2013-01-08 16:36:00,48.7,24.3,32.27,SSE,165,5.4,5.4,38,-99.99,,,0.00,LWC V2.10 B1813,2013-01-08 21:36:00,
2013-01-08 16:41:00,48.6,24.1,32.27,SSE,166,3.1,5.4,38,-99.99,,,0.00,LWC V2.10 B1813,2013-01-08 21:41:00,
2013-01-08 16:46:00,48.4,24.0,32.27,SSE,152,3.1,4.0,38,-99.99,,,0.00,LWC V2.10 B1813,2013-01-08 21:46:00,
2013-01-08 16:51:00,48.0,23.6,32.27,SSE,162,3.6,4.0,38,-99.99,,,0.00,LWC V2.10 B1813,2013-01-08 21:51:00,
2013-01-08 16:56:00,47.8,23.5,32.27,SSE,166,3.6,4.9,38,-99.99,,,0.00,LWC V2.10 B1813,2013-01-08 21:56:00,
2013-01-08 17:01:00,47.3,23.6,32.27,SSE,153,3.6,3.6,39,-99.99,,,0.00,LWC V2.10 B1813,2013-01-08 22:01:00,
2013-01-08 17:06:00,46.6,23.0,32.27,SSE,153,3.1,3.6,39,-99.99,,,0.00,LWC V2.10 B1813,2013-01-08 22:06:00,
2013-01-08 17:11:00,46.0,23.1,32.27,SSE,153,4.0,4.0,40,-99.99,,,0.00,LWC V2.10 B1813,2013-01-08 22:11:00,
2013-01-08 17:16:00,45.5,22.6,32.27,SSE,153,3.1,3.6,40,-99.99,,,0.00,LWC V2.10 B1813,2013-01-08 22:16:00,
2013-01-08 17:21:00,45.1,22.9,32.27,SSE,153,2.7,3.1,41,-99.99,,,0.00,LWC V2.10 B1813,2013-01-08 22:21:00,
2013-01-08 17:27:00,44.8,22.5,32.27,SSE,153,2.7,3.6,41,-99.99,,,0.00,LWC V2.10 B1813,2013-01-08 22:27:00,
2013-01-08 17:32:00,44.2,22.6,32.27,SSE,153,0.0,2.7,42,-99.99,,,0.00,LWC V2.10 B1813,2013-01-08 22:32:00,
2013-01-08 17:37:00,43.7,22.7,32.27,SSE,153,2.7,3.1,43,-99.99,,,0.00,LWC V2.10 B1813,2013-01-08 22:37:00,
2013-01-08 17:42:00,43.5,22.5,32.27,SSE,153,2.7,2.7,43,-99.99,,,0.00,LWC V2.10 B1813,2013-01-08 22:42:00,
2013-01-08 17:47:00,43.2,22.7,32.27,SSE,153,2.7,2.7,44,-99.99,,,0.00,LWC V2.10 B1813,2013-01-08 22:47:00,
2013-01-08 17:52:00,43.2,23.3,32.27,SSE,153,0.0,0.0,45,-99.99,,,0.00,LWC V2.10 B1813,2013-01-08 22:52:00,
2013-01-08 17:57:00,43.3,22.9,32.27,SSE,153,0.0,0.0,44,-99.99,,,0.00,LWC V2.10 B1813,2013-01-08 22:57:00,
2013-01-08 18:02:00,43.9,22.8,32.27,SSE,153,0.0,0.0,43,-99.99,,,0.00,LWC V2.10 B1813,2013-01-08 23:02:00,
2013-01-08 18:07:00,43.9,22.8,32.27,SE,128,0.0,0.0,43,-99.99,,,0.00,LWC V2.10 B1813,2013-01-08 23:07:00,
2013-01-08 18:12:00,43.7,22.7,32.27,SE,128,0.0,0.0,43,-99.99,,,0.00,LWC V2.10 B1813,2013-01-08 23:12:00,
2013-01-08 18:17:00,43.5,22.5,32.27,SE,128,0.0,0.0,43,-99.99,,,0.00,LWC V2.10 B1813,2013-01-08 23:17:00,
2013-01-08 18:22:00,43.5,22.5,32.27,SE,128,0.0,0.0,43,-99.99,,,0.00,LWC V2.10 B1813,2013-01-08 23:22:00,
2013-01-08 18:27:00,43.5,22.5,32.27,SE,128,0.0,0.0,43,-99.99,,,0.00,LWC V2.10 B1813,2013-01-08 23:27:00,
2013-01-08 18:32:00,43.5,22.5,32.27,SE,128,0.0,0.0,43,-99.99,,,0.00,LWC V2.10 B1813,2013-01-08 23:32:00,
2013-01-08 18:37:00,43.3,22.4,32.27,SE,128,0.0,0.0,43,-99.99,,,0.00,LWC V2.10 B1813,2013-01-08 23:37:00,
2013-01-08 18:42:00,43.3,22.4,32.27,SE,128,0.0,0.0,43,-99.99,,,0.00,LWC V2.10 B1813,2013-01-08 23:42:00,
2013-01-08 18:47:00,43.2,22.2,32.27,SE,128,0.0,0.0,43,-99.99,,,0.00,LWC V2.10 B1813,2013-01-08 23:47:00,
2013-01-08 18:52:00,43.0,22.0,32.27,SE,128,0.0,0.0,43,-99.99,,,0.00,LWC V2.10 B1813,2013-01-08 23:52:00,
2013-01-08 18:57:00,43.0,22.6,32.27,SE,128,0.0,0.0,44,-99.99,,,0.00,LWC V2.10 B1813,2013-01-08 23:57:00,
2013-01-08 19:02:00,42.8,22.4,32.27,SE,128,3.1,3.6,44,-99.99,,,0.00,LWC V2.10 B1813,2013-01-09 00:02:00,
2013-01-08 19:07:00,42.4,22.6,32.27,SE,128,2.2,3.6,45,-99.99,,,0.00,LWC V2.10 B1813,2013-01-09 00:07:00,
2013-01-08 19:12:00,42.3,22.5,32.27,SE,128,2.7,2.7,45,-99.99,,,0.00,LWC V2.10 B1813,2013-01-09 00:12:00,
2013-01-08 19:17:00,42.1,22.3,32.27,SE,128,3.6,3.6,45,-99.99,,,0.00,LWC V2.10 B1813,2013-01-09 00:17:00,
2013-01-08 19:22:00,42.1,22.8,32.27,SE,127,2.7,3.1,46,-99.99,,,0.00,LWC V2.10 B1813,2013-01-09 00:22:00,
2013-01-08 19:27:00,41.9,22.6,32.27,SE,128,2.2,3.6,46,-99.99,,,0.00,LWC V2.10 B1813,2013-01-09 00:27:00,
2013-01-08 19:32:00,41.9,22.6,32.27,SE,127,2.7,4.0,46,-99.99,,,0.00,LWC V2.10 B1813,2013-01-09 00:32:00,
2013-01-08 19:37:00,41.7,22.5,32.27,SE,128,3.1,4.0,46,-99.99,,,0.00,LWC V2.10 B1813,2013-01-09 00:37:00,
2013-01-08 19:42:00,41.4,22.2,32.27,SE,127,3.6,3.6,46,-99.99,,,0.00,LWC V2.10 B1813,2013-01-09 00:42:00,
2013-01-08 19:47:00,41.4,22.2,32.27,SE,128,3.1,4.0,46,-99.99,,,0.00,LWC V2.10 B1813,2013-01-09 00:47:00,
2013-01-08 19:52:00,41.4,22.7,32.27,SE,128,2.7,3.1,47,-99.99,,,0.00,LWC V2.10 B1813,2013-01-09 00:52:00,
2013-01-08 19:57:00,41.7,22.5,32.27,SE,128,3.1,4.0,46,-99.99,,,0.00,LWC V2.10 B1813,2013-01-09 00:57:00,
2013-01-08 20:02:00,41.7,22.5,32.27,SE,128,3.6,3.6,46,-99.99,,,0.00,LWC V2.10 B1813,2013-01-09 01:02:00,
2013-01-08 20:07:00,41.7,22.5,32.27,SE,128,3.6,3.6,46,-99.99,,,0.00,LWC V2.10 B1813,2013-01-09 01:07:00,
2013-01-08 20:12:00,41.2,22.0,32.27,SE,127,2.7,3.6,46,-99.99,,,0.00,LWC V2.10 B1813,2013-01-09 01:12:00,
2013-01-08 20:17:00,40.5,22.8,32.27,ENE,68,2.7,3.1,49,-99.99,,,0.00,LWC V2.10 B1813,2013-01-09 01:17:00,
2013-01-08 20:22:00,40.1,23.0,32.27,ENE,62,3.1,5.4,50,-99.99,,,0.00,LWC V2.10 B1813,2013-01-09 01:22:00,
2013-01-08 20:27:00,39.9,22.8,32.27,ENE,69,2.2,3.6,50,-99.99,,,0.00,LWC V2.10 B1813,2013-01-09 01:27:00,
2013-01-08 20:32:00,40.1,22.5,32.27,East,101,4.0,4.0,49,-99.99,,,0.00,LWC V2.10 B1813,2013-01-09 01:32:00,
2013-01-08 20:37:00,40.5,22.8,32.27,ESE,102,2.7,4.0,49,-99.99,,,0.00,LWC V2.10 B1813,2013-01-09 01:37:00,
2013-01-08 20:42:00,40.8,22.7,32.27,ESE,102,3.6,3.6,48,-99.99,,,0.00,LWC V2.10 B1813,2013-01-09 01:42:00,
2013-01-08 20:47:00,40.8,22.7,32.27,East,95,2.7,3.6,48,-99.99,,,0.00,LWC V2.10 B1813,2013-01-09 01:47:00,
2013-01-08 20:52:00,40.8,22.7,32.27,ESE,105,3.1,3.6,48,-99.99,,,0.00,LWC V2.10 B1813,2013-01-09 01:52:00,
2013-01-08 20:57:00,40.6,22.5,32.27,ESE,105,3.1,3.6,48,-99.99,,,0.00,LWC V2.10 B1813,2013-01-09 01:57:00,
2013-01-08 21:02:00,40.5,22.3,32.27,ESE,105,4.0,4.0,48,-99.99,,,0.00,LWC V2.10 B1813,2013-01-09 02:02:00,
2013-01-08 21:07:00,39.9,22.3,32.27,ESE,110,3.1,4.0,49,-99.99,,,0.00,LWC V2.10 B1813,2013-01-09 02:07:00,
2013-01-08 21:12:00,39.7,22.6,32.27,ESE,110,3.1,3.6,50,-99.99,,,0.00,LWC V2.10 B1813,2013-01-09 02:12:00,
2013-01-08 21:17:00,39.2,22.1,32.27,ESE,118,3.1,4.0,50,-99.99,,,0.00,LWC V2.10 B1813,2013-01-09 02:17:00,
2013-01-08 21:22:00,38.8,22.3,32.27,SE,128,3.6,4.0,51,-99.99,,,0.00,LWC V2.10 B1813,2013-01-09 02:22:00,
2013-01-08 21:27:00,38.5,22.4,32.27,SE,138,3.1,4.0,52,-99.99,,,0.00,LWC V2.10 B1813,2013-01-09 02:27:00,
2013-01-08 21:32:00,38.1,22.5,32.27,SE,138,3.6,3.6,53,-99.99,,,0.00,LWC V2.10 B1813,2013-01-09 02:32:00,
2013-01-08 21:37:00,38.1,22.5,32.27,SE,138,3.6,4.0,53,-99.99,,,0.00,LWC V2.10 B1813,2013-01-09 02:37:00,
2013-01-08 21:42:00,38.5,22.9,32.27,SE,130,3.6,4.0,53,-99.99,,,0.00,LWC V2.10 B1813,2013-01-09 02:42:00,
2013-01-08 21:47:00,38.5,22.9,32.27,SE,130,3.6,4.0,53,-99.99,,,0.00,LWC V2.10 B1813,2013-01-09 02:47:00,
2013-01-08 21:52:00,38.3,22.7,32.27,SE,130,3.6,4.0,53,-99.99,,,0.00,LWC V2.10 B1813,2013-01-09 02:52:00,
2013-01-08 21:57:00,37.9,22.8,32.27,ESE,114,3.1,3.6,54,-99.99,,,0.00,LWC V2.10 B1813,2013-01-09 02:57:00,
2013-01-08 22:02:00,37.8,22.6,32.27,ESE,109,4.0,4.0,54,-99.99,,,0.00,LWC V2.10 B1813,2013-01-09 03:02:00,
2013-01-08 22:07:00,37.6,22.5,32.27,ESE,114,4.0,4.0,54,-99.99,,,0.00,LWC V2.10 B1813,2013-01-09 03:07:00,
2013-01-08 22:12:00,37.4,22.3,32.27,ESE,119,3.6,4.0,54,-99.99,,,0.00,LWC V2.10 B1813,2013-01-09 03:12:00,
2013-01-08 22:17:00,37.2,22.6,32.27,ESE,119,4.0,4.0,55,-99.99,,,0.00,LWC V2.10 B1813,2013-01-09 03:17:00,
2013-01-08 22:22:00,37.0,22.8,32.27,ESE,119,4.0,4.0,56,-99.99,,,0.00,LWC V2.10 B1813,2013-01-09 03:22:00,
2013-01-08 22:27:00,37.0,22.8,32.27,ESE,115,4.0,4.0,56,-99.99,,,0.00,LWC V2.10 B1813,2013-01-09 03:27:00,
2013-01-08 22:32:00,36.9,22.6,32.27,SE,124,3.1,4.5,56,-99.99,,,0.00,LWC V2.10 B1813,2013-01-09 03:32:00,
2013-01-08 22:37:00,36.9,22.6,32.27,SE,125,4.0,4.0,56,-99.99,,,0.00,LWC V2.10 B1813,2013-01-09 03:37:00,
2013-01-08 22:42:00,36.9,23.1,32.27,SE,142,5.4,5.4,57,-99.99,,,0.00,LWC V2.10 B1813,2013-01-09 03:42:00,
2013-01-08 22:47:00,36.3,22.6,32.27,SE,144,6.3,6.3,57,-99.99,,,0.00,LWC V2.10 B1813,2013-01-09 03:47:00,
2013-01-08 22:52:00,35.8,22.9,32.27,SE,143,5.4,6.3,59,-99.99,,,0.00,LWC V2.10 B1813,2013-01-09 03:52:00,
2013-01-08 22:57:00,35.8,23.3,32.27,SE,142,5.8,6.3,60,-99.99,,,0.00,LWC V2.10 B1813,2013-01-09 03:57:00,
2013-01-08 23:02:00,35.8,23.3,32.27,SE,142,6.3,6.3,60,-99.99,,,0.00,LWC V2.10 B1813,2013-01-09 04:02:00,
2013-01-08 23:07:00,36.0,23.0,32.27,SE,144,6.3,6.7,59,-99.99,,,0.00,LWC V2.10 B1813,2013-01-09 04:07:00,
2013-01-08 23:12:00,36.1,22.8,32.27,SE,143,5.8,6.3,58,-99.99,,,0.00,LWC V2.10 B1813,2013-01-09 04:12:00,
2013-01-08 23:17:00,36.3,22.6,32.27,SE,138,4.9,6.3,57,-99.99,,,0.00,LWC V2.10 B1813,2013-01-09 04:17:00,
2013-01-08 23:22:00,36.5,22.3,32.27,SE,133,5.4,5.8,56,-99.99,,,0.00,LWC V2.10 B1813,2013-01-09 04:22:00,
2013-01-08 23:27:00,36.5,22.3,32.27,SE,132,5.8,6.3,56,-99.99,,,0.00,LWC V2.10 B1813,2013-01-09 04:27:00,
2013-01-08 23:32:00,36.3,22.1,32.27,SE,144,5.4,6.3,56,-99.99,,,0.00,LWC V2.10 B1813,2013-01-09 04:32:00,
2013-01-08 23:37:00,36.1,22.0,32.27,SE,138,5.8,6.3,56,-99.99,,,0.00,LWC V2.10 B1813,2013-01-09 04:37:00,
2013-01-08 23:42:00,36.3,22.1,32.27,SE,135,5.4,6.3,56,-99.99,,,0.00,LWC V2.10 B1813,2013-01-09 04:42:00,
2013-01-08 23:47:00,36.3,22.1,32.27,SE,129,5.8,6.3,56,-99.99,,,0.00,LWC V2.10 B1813,2013-01-09 04:47:00,
2013-01-08 23:52:00,36.1,22.0,32.27,SE,138,5.4,7.6,56,-99.99,,,0.00,LWC V2.10 B1813,2013-01-09 04:52:00,
2013-01-08 23:57:00,36.1,22.0,32.27,SE,135,4.9,5.4,56,-99.99,,,0.00,LWC V2.10 B1813,2013-01-09 04:57:00,